HU-0045 weather

Bácsbokod Border Police Heliport
Bács-Kiskun, Hungary

Public forecast

Using degrees Celsius for public forecast. Weather courtesy of forecast.io.

Closest aviation weather report (METAR) to Bácsbokod Border Police Heliport

Closest report is Pécs-Pogány Airport, 38.8 nm (71.9 km) W. Retrieved 2020/07/06 17:15 UTC (32 minutes ago):

LHPP 061715Z 01008KT CAVOK 29/15 Q1007

Closest aviation forecast (TAF) to Bácsbokod Border Police Heliport

Forecast is more than 12 hours old.

Closest forecast is Pécs-Pogány Airport, 38.8 nm (71.9 km) W. Retrieved 2017/08/21 15:50 UTC (3 years ago):

TAF LHPP 211700Z 2115/2214 CNL